Time;durP1;ratioP1;P1;durP2;ratioP2;P2;SDS_P1;SDS_P2;PMS_P1;PMS_P2;Temp;Humidity;BMP_temperature;BMP_pressure;BME280_temperature;BME280_humidity;BME280_pressure;Samples;Min_cycle;Max_cycle;Signal;HPM_P1;HPM_P2
2022/12/03 00:01:24;;;;;;;31.98;17.35;;;;;;;6.43;77.20;95926.53;5051346;28;20045;-85
2022/12/03 00:03:49;;;;;;;31.02;16.38;;;;;;;6.10;77.12;95869.94;5050227;28;20041;-85
2022/12/03 00:06:15;;;;;;;30.75;17.30;;;;;;;5.73;77.17;95810.59;5033497;28;20127;-85
2022/12/03 00:08:40;;;;;;;30.98;17.00;;;;;;;6.37;77.22;95914.28;5033739;28;20040;-85
2022/12/03 00:11:06;;;;;;;27.75;15.30;;;;;;;6.36;76.86;95916.09;5050833;28;20029;-84
2022/12/03 00:13:31;;;;;;;30.13;14.60;;;;;;;6.22;77.53;95929.72;5051278;28;20074;-85
2022/12/03 00:15:56;;;;;;;25.55;14.27;;;;;;;5.77;77.42;95846.78;5032963;28;20032;-85
2022/12/03 00:18:22;;;;;;;29.27;13.80;;;;;;;5.87;76.84;95869.91;5033648;28;20527;-85
2022/12/03 00:20:47;;;;;;;27.20;15.02;;;;;;;6.13;77.83;95930.06;5050966;28;20125;-85
2022/12/03 00:23:13;;;;;;;23.58;12.20;;;;;;;4.93;77.53;95739.19;5050459;28;20044;-84
2022/12/03 00:25:38;;;;;;;27.77;14.38;;;;;;;5.67;77.67;95878.09;5032889;28;20041;-84
2022/12/03 00:28:03;;;;;;;26.20;13.93;;;;;;;6.15;77.85;95956.97;5050754;28;20072;-84
2022/12/03 00:30:29;;;;;;;29.33;14.48;;;;;;;6.08;77.62;95932.59;5033043;28;20041;-84
2022/12/03 00:32:54;;;;;;;26.13;14.10;;;;;;;5.58;77.70;95862.84;5032621;28;20075;-85
2022/12/03 00:35:20;;;;;;;28.33;14.85;;;;;;;5.90;77.60;95908.16;5032849;28;20136;-84
2022/12/03 00:37:45;;;;;;;24.13;12.77;;;;;;;5.50;78.06;95871.84;5051197;28;20037;-84
2022/12/03 00:40:11;;;;;;;24.20;12.75;;;;;;;5.67;78.37;95885.19;5033296;28;20052;-84
2022/12/03 00:42:36;;;;;;;25.63;13.93;;;;;;;5.79;77.72;95897.38;5032390;28;20045;-84
2022/12/03 00:45:02;;;;;;;21.63;12.80;;;;;;;6.00;77.74;95924.22;5032546;28;20077;-85
2022/12/03 00:47:27;;;;;;;25.98;13.60;;;;;;;5.66;77.79;95862.53;5033022;28;20049;-84
2022/12/03 00:49:53;;;;;;;23.13;12.70;;;;;;;6.35;77.56;95969.03;5033312;28;20522;-85
2022/12/03 00:52:18;;;;;;;21.98;12.15;;;;;;;5.84;77.50;95930.91;5051024;28;20029;-84
2022/12/03 00:54:44;;;;;;;23.52;12.18;;;;;;;5.89;77.50;95917.06;5032532;28;20048;-85
2022/12/03 00:57:09;;;;;;;18.25;10.93;;;;;;;6.33;77.54;95985.06;5066675;28;20509;-85
2022/12/03 00:59:35;;;;;;;22.13;12.32;;;;;;;5.86;77.38;95905.16;5055953;28;20578;-84
2022/12/03 01:02:00;;;;;;;22.77;11.55;;;;;;;5.86;76.88;95909.63;5042822;28;20064;-85
2022/12/03 01:04:26;;;;;;;20.48;11.85;;;;;;;6.35;76.86;95995.38;5049235;28;20523;-85
2022/12/03 01:06:51;;;;;;;19.40;10.45;;;;;;;5.41;77.85;95891.66;5050346;28;20506;-84
2022/12/03 01:09:16;;;;;;;19.50;10.13;;;;;;;5.23;77.58;95852.22;5044220;28;20048;-82
2022/12/03 01:11:42;;;;;;;17.27;10.07;;;;;;;5.78;77.71;95958.13;5039299;28;20222;-83
2022/12/03 01:14:16;;;;;;;22.73;11.73;;;;;;;5.37;77.71;95882.56;5020788;28;20599;-82
2022/12/03 01:16:42;;;;;;;19.13;11.25;;;;;;;5.69;78.03;95955.00;5039097;28;20040;-83
2022/12/03 01:19:09;;;;;;;18.75;11.00;;;;;;;5.44;77.70;95889.34;5039746;28;20044;-83
2022/12/03 01:21:35;;;;;;;19.65;10.48;;;;;;;6.08;77.53;95994.97;5039791;28;20052;-84
2022/12/03 01:24:02;;;;;;;19.17;11.07;;;;;;;6.11;77.73;96000.59;5021573;28;20044;-84
2022/12/03 01:26:27;;;;;;;19.55;10.98;;;;;;;5.37;77.34;95882.56;5021462;28;20507;-84
2022/12/03 01:28:53;;;;;;;23.35;11.65;;;;;;;5.40;77.30;95893.47;5021920;28;20041;-83
2022/12/03 01:34:03;;;;;;;23.45;12.13;;;;;;;5.35;77.47;95877.53;5041525;28;20110;-84
2022/12/03 01:36:28;;;;;;;20.00;10.80;;;;;;;5.43;77.37;95893.00;5025013;28;20036;-83
2022/12/03 01:38:53;;;;;;;21.13;11.98;;;;;;;5.66;77.72;95920.41;5025039;28;20045;-85
2022/12/03 01:41:21;;;;;;;24.52;12.57;;;;;;;6.27;77.16;96009.66;5042451;28;20076;-83
2022/12/03 01:43:47;;;;;;;22.38;12.48;;;;;;;6.29;77.77;96007.63;5042932;28;20048;-83
2022/12/03 01:46:17;;;;;;;23.90;12.43;;;;;;;5.64;77.34;95901.44;5022241;28;20088;-82
2022/12/03 01:48:44;;;;;;;18.63;11.48;;;;;;;6.24;77.50;95999.59;5004972;28;20049;-83
2022/12/03 01:51:11;;;;;;;20.45;11.82;;;;;;;5.93;77.47;95936.66;5023016;28;20112;-84
2022/12/03 01:53:37;;;;;;;20.65;11.68;;;;;;;5.75;77.36;95908.53;5004719;28;20052;-83
2022/12/03 01:56:02;;;;;;;18.98;11.25;;;;;;;6.31;77.36;96004.78;5022900;28;20037;-84
2022/12/03 01:58:28;;;;;;;20.45;11.75;;;;;;;5.63;77.17;95895.38;5004965;28;20041;-81
2022/12/03 02:00:56;;;;;;;19.27;10.73;;;;;;;5.68;76.67;95902.59;5022956;28;20115;-83
2022/12/03 02:03:24;;;;;;;20.27;10.73;;;;;;;6.14;77.63;95996.72;5004754;28;20056;-83
2022/12/03 02:05:50;;;;;;;19.33;10.85;;;;;;;6.26;77.29;95994.09;5004610;28;20128;-83
2022/12/03 02:08:33;;;;;;;20.60;11.55;;;;;;;5.68;76.77;95903.38;5005776;28;20140;-84
2022/12/03 02:11:30;;;;;;;20.27;10.95;;;;;;;6.28;77.09;95999.94;5023424;28;20427;-82
2022/12/03 02:14:00;;;;;;;17.27;9.98;;;;;;;6.13;76.93;95974.84;5005348;28;20033;-82
2022/12/03 02:16:26;;;;;;;18.02;10.45;;;;;;;6.00;76.81;95958.44;5022538;28;20790;-83
2022/12/03 02:18:51;;;;;;;18.92;10.82;;;;;;;6.18;76.84;95998.66;5023150;28;20041;-83
2022/12/03 02:21:33;;;;;;;15.70;9.85;;;;;;;5.50;76.70;95881.56;5005339;28;20048;-83
2022/12/03 02:24:38;;;;;;;19.15;10.07;;;;;;;5.54;76.64;95888.00;5005484;28;20041;-82
2022/12/03 02:27:03;;;;;;;17.80;9.60;;;;;;;5.20;76.25;95845.56;4968379;28;20124;-84
2022/12/03 02:29:29;;;;;;;19.50;9.90;;;;;;;6.20;76.95;95990.53;5004680;28;20628;-82
2022/12/03 02:31:55;;;;;;;16.50;9.85;;;;;;;5.40;76.79;95880.31;5008972;28;20487;-81
2022/12/03 02:34:35;;;;;;;18.77;9.52;;;;;;;6.26;76.59;95991.44;5031148;28;20176;-80
2022/12/03 02:37:02;;;;;;;15.43;9.48;;;;;;;5.50;76.65;95876.31;5031441;28;20033;-81
2022/12/03 02:39:28;;;;;;;16.70;10.00;;;;;;;6.05;77.01;95950.66;5012975;28;20459;-81
2022/12/03 02:44:37;;;;;;;15.43;10.00;;;;;;;5.72;76.22;95906.38;5030406;28;20072;-80
2022/12/03 02:47:03;;;;;;;17.15;9.35;;;;;;;6.02;76.51;95956.38;5017993;28;20061;-80
2022/12/03 02:49:28;;;;;;;17.80;10.77;;;;;;;5.81;76.27;95926.06;5032736;28;20065;-80
2022/12/03 02:51:54;;;;;;;18.45;9.73;;;;;;;5.77;76.76;95909.94;5049638;28;20045;-80
2022/12/03 02:54:19;;;;;;;21.17;10.40;;;;;;;5.42;76.54;95846.69;5033161;28;20056;-80
2022/12/03 02:56:45;;;;;;;18.80;10.77;;;;;;;6.19;76.57;95978.38;5050448;28;20568;-81
2022/12/03 02:59:11;;;;;;;19.13;10.82;;;;;;;5.73;76.67;95900.88;5050240;28;20040;-81
2022/12/03 03:01:36;;;;;;;20.35;11.50;;;;;;;5.54;76.71;95866.97;5028396;28;20049;-84
2022/12/03 03:04:03;;;;;;;19.58;11.65;;;;;;;5.80;76.52;95901.56;5023873;28;20127;-82
2022/12/03 03:06:29;;;;;;;25.38;12.52;;;;;;;6.36;76.89;95992.50;5023109;28;20045;-84
2022/12/03 03:08:54;;;;;;;22.35;11.15;;;;;;;6.36;76.39;95995.16;5023148;28;20792;-84
2022/12/03 03:11:20;;;;;;;20.60;11.88;;;;;;;5.19;76.22;95819.53;5041566;28;20061;-81
2022/12/03 03:13:45;;;;;;;19.60;11.55;;;;;;;5.97;76.53;95932.53;5042063;28;20045;-84
2022/12/03 03:16:11;;;;;;;22.88;10.73;;;;;;;5.71;76.95;95905.59;5041177;28;20586;-82
2022/12/03 03:18:37;;;;;;;20.15;10.60;;;;;;;5.57;76.76;95872.56;5041271;28;20043;-84
2022/12/03 03:21:03;;;;;;;20.20;11.75;;;;;;;5.25;76.76;95822.06;5023678;28;20048;-82
2022/12/03 03:23:29;;;;;;;21.02;11.63;;;;;;;6.30;76.65;95992.63;5023737;28;20045;-84
2022/12/03 03:26:07;;;;;;;18.20;11.55;;;;;;;5.01;76.30;95787.00;5023100;28;20118;-84
2022/12/03 03:28:45;;;;;;;18.23;11.00;;;;;;;6.03;76.35;95945.59;5041508;28;20045;-84
2022/12/03 03:31:14;;;;;;;20.13;11.30;;;;;;;5.43;76.41;95856.19;5023588;28;20037;-82
2022/12/03 03:33:42;;;;;;;20.20;11.88;;;;;;;5.76;76.46;95904.88;5041883;28;20542;-84
2022/12/03 03:36:08;;;;;;;19.30;12.07;;;;;;;6.30;76.61;95971.53;5023672;28;20139;-84
2022/12/03 03:38:35;;;;;;;20.98;11.82;;;;;;;5.73;76.58;95902.69;5056363;28;20179;-84
2022/12/03 03:41:03;;;;;;;20.27;12.30;;;;;;;5.91;76.78;95930.81;5056225;28;20139;-82
2022/12/03 03:43:32;;;;;;;19.77;11.95;;;;;;;5.87;76.94;95924.38;5039988;28;20049;-82
2022/12/03 03:45:57;;;;;;;23.60;12.20;;;;;;;5.31;76.73;95859.81;5007137;28;20603;-83
2022/12/03 03:48:23;;;;;;;21.50;12.30;;;;;;;5.59;76.76;95898.66;5023320;28;20140;-82
2022/12/03 03:50:50;;;;;;;20.67;12.07;;;;;;;6.22;77.12;95998.22;5023178;28;20954;-82
2022/12/03 03:53:17;;;;;;;17.30;10.32;;;;;;;5.55;76.83;95916.75;5023240;28;20168;-83
2022/12/03 03:55:43;;;;;;;23.67;11.20;;;;;;;5.35;76.97;95889.88;5040426;28;20074;-82
2022/12/03 03:58:08;;;;;;;19.80;11.68;;;;;;;5.74;77.00;95949.84;5023162;28;20395;-84
2022/12/03 04:00:35;;;;;;;18.83;10.43;;;;;;;5.79;77.00;95934.22;5039892;28;20080;-83
2022/12/03 04:03:02;;;;;;;17.73;10.02;;;;;;;6.25;76.50;95997.78;5041038;28;20060;-82
2022/12/03 04:05:28;;;;;;;18.65;11.10;;;;;;;6.26;76.33;96008.06;5040530;28;20392;-81
2022/12/03 04:07:54;;;;;;;17.58;10.23;;;;;;;5.33;76.51;95852.50;5041209;28;20043;-83
2022/12/03 04:13:03;;;;;;;21.27;11.15;;;;;;;5.44;76.51;95878.84;5043847;28;20094;-84
2022/12/03 04:15:29;;;;;;;17.35;9.85;;;;;;;5.64;76.37;95918.03;5027717;28;20868;-82
2022/12/03 04:20:39;;;;;;;15.80;9.50;;;;;;;5.49;76.31;95895.78;5041048;28;20076;-83
2022/12/03 04:23:05;;;;;;;16.95;9.75;;;;;;;5.78;76.26;95960.75;5041238;28;20052;-82
2022/12/03 04:30:59;;;;;;;16.65;10.27;;;;;;;5.39;76.40;95889.22;5040647;28;20052;-83
2022/12/03 04:36:09;;;;;;;16.60;9.68;;;;;;;5.59;76.76;95940.75;5040261;28;20080;-82
2022/12/03 04:38:34;;;;;;;18.42;10.70;;;;;;;5.75;76.79;95969.09;5040048;28;20061;-84
2022/12/03 04:41:00;;;;;;;18.33;10.07;;;;;;;5.85;76.72;95984.34;5040646;28;20041;-84
2022/12/03 04:43:32;;;;;;;17.25;10.18;;;;;;;6.17;76.45;96041.03;5040228;28;20696;-82
2022/12/03 04:45:58;;;;;;;18.40;10.98;;;;;;;5.57;76.77;95948.09;5040143;28;20052;-83
2022/12/03 04:48:24;;;;;;;20.20;10.30;;;;;;;6.14;76.26;96037.00;5039102;28;20080;-83
2022/12/03 04:50:49;;;;;;;17.77;10.10;;;;;;;6.10;76.63;96037.69;5022685;28;20164;-82
2022/12/03 04:53:15;;;;;;;16.95;10.10;;;;;;;5.66;76.46;95946.72;5040517;28;20060;-84
2022/12/03 04:55:40;;;;;;;20.65;11.85;;;;;;;5.67;76.48;95943.88;5021680;28;20123;-82
2022/12/03 04:58:06;;;;;;;18.33;11.45;;;;;;;5.57;76.80;95940.97;5040283;28;20128;-82
2022/12/03 05:00:31;;;;;;;14.07;9.77;;;;;;;6.05;76.62;96012.03;5021866;28;20036;-84
2022/12/03 05:02:56;;;;;;;20.00;10.25;;;;;;;5.76;77.15;95962.78;5055126;28;20107;-82
2022/12/03 05:05:22;;;;;;;19.92;10.15;;;;;;;5.75;76.64;95969.88;5039588;28;20047;-83
2022/12/03 05:07:47;;;;;;;17.60;9.40;;;;;;;5.37;76.85;95907.06;5054857;28;20130;-82
2022/12/03 05:10:13;;;;;;;14.57;8.80;;;;;;;6.19;76.76;96038.97;5043015;28;20037;-81
2022/12/03 05:12:38;;;;;;;14.55;8.98;;;;;;;5.49;76.49;95916.84;5043149;28;20107;-82
2022/12/03 05:15:05;;;;;;;18.05;10.13;;;;;;;5.93;76.13;95995.41;5025044;28;20091;-84
2022/12/03 05:17:31;;;;;;;14.70;8.82;;;;;;;6.22;76.24;96038.53;5043938;28;20052;-83
2022/12/03 05:22:40;;;;;;;17.63;9.40;;;;;;;6.23;76.69;96039.34;5043380;28;20580;-83
2022/12/03 05:25:06;;;;;;;16.45;9.50;;;;;;;5.21;76.99;95901.59;5024268;28;20048;-83
2022/12/03 05:27:32;;;;;;;13.98;8.30;;;;;;;6.12;76.99;96036.44;5042890;28;20045;-83
2022/12/03 05:29:57;;;;;;;13.38;8.70;;;;;;;5.42;76.54;95924.78;5043100;28;20032;-82
2022/12/03 05:32:23;;;;;;;13.85;8.70;;;;;;;5.25;76.56;95898.31;5042474;28;20036;-84
2022/12/03 05:34:48;;;;;;;15.38;9.35;;;;;;;6.20;76.78;96038.75;5042532;28;20044;-82
2022/12/03 05:37:13;;;;;;;13.73;8.50;;;;;;;5.11;76.55;95875.84;5024492;28;20044;-83
2022/12/03 05:39:39;;;;;;;14.57;9.38;;;;;;;6.05;76.79;96030.44;5042472;28;20048;-82
2022/12/03 05:44:53;;;;;;;14.30;8.63;;;;;;;5.58;76.83;95936.53;5013276;28;20521;-83
2022/12/03 05:47:18;;;;;;;16.95;10.27;;;;;;;5.59;76.43;95949.47;5041804;28;20045;-83
2022/12/03 05:49:43;;;;;;;11.75;7.93;;;;;;;5.38;76.22;95929.72;5023844;28;20480;-84
2022/12/03 05:52:09;;;;;;;13.82;7.72;;;;;;;5.24;76.33;95904.59;5041278;28;20038;-83
2022/12/03 05:54:34;;;;;;;13.27;7.82;;;;;;;6.19;76.73;96052.94;5054104;28;20037;-83
2022/12/03 05:57:00;;;;;;;15.30;7.95;;;;;;;5.92;76.46;96008.78;5041608;28;20575;-83
2022/12/03 05:59:25;;;;;;;16.63;9.63;;;;;;;6.23;77.06;96057.78;5041344;28;20087;-84
2022/12/03 06:01:50;;;;;;;19.55;10.43;;;;;;;5.56;76.54;95954.38;5041042;28;20037;-83
2022/12/03 06:04:16;;;;;;;19.40;10.00;;;;;;;6.25;76.92;96066.25;5023558;28;20044;-84
2022/12/03 06:06:41;;;;;;;13.45;8.27;;;;;;;6.24;76.34;96078.63;5041879;28;20045;-84
2022/12/03 06:09:07;;;;;;;12.52;7.75;;;;;;;6.23;76.50;96074.38;5024364;28;20045;-84
2022/12/03 06:11:36;;;;;;;13.25;7.53;;;;;;;4.97;76.22;95909.38;5023879;28;20099;-82
2022/12/03 06:14:01;;;;;;;11.18;7.10;;;;;;;6.08;75.94;96085.31;5056860;28;20064;-83
2022/12/03 06:16:27;;;;;;;14.77;7.90;;;;;;;5.22;75.78;95940.03;5041850;28;20136;-84
2022/12/03 06:18:52;;;;;;;15.90;8.30;;;;;;;6.16;75.65;96082.38;5023404;28;20140;-81
2022/12/03 06:21:18;;;;;;;15.68;8.15;;;;;;;5.82;76.75;96041.66;5040100;28;20052;-83
2022/12/03 06:23:43;;;;;;;12.50;7.50;;;;;;;5.81;76.26;96019.00;5022941;28;20049;-82
2022/12/03 06:26:13;;;;;;;13.07;8.10;;;;;;;5.57;75.98;95988.34;5023275;28;20099;-83
2022/12/03 06:28:39;;;;;;;13.90;7.72;;;;;;;5.85;76.04;96018.56;5041608;28;20456;-84
2022/12/03 06:31:05;;;;;;;16.08;8.20;;;;;;;5.37;75.97;95948.34;5023345;28;20201;-84
2022/12/03 06:33:30;;;;;;;12.80;7.72;;;;;;;5.60;75.96;95993.16;5023343;28;20075;-83
2022/12/03 06:35:56;;;;;;;12.07;7.43;;;;;;;5.05;75.57;95911.69;5022731;28;20097;-84
2022/12/03 06:38:22;;;;;;;13.07;7.97;;;;;;;6.22;75.64;96088.56;5023875;28;20045;-83
2022/12/03 06:40:47;;;;;;;14.70;7.07;;;;;;;5.93;75.54;96048.06;5057128;28;20776;-82
2022/12/03 06:43:13;;;;;;;13.40;6.90;;;;;;;5.57;75.23;95985.72;5056009;28;20037;-84
2022/12/03 06:45:38;;;;;;;14.70;7.45;;;;;;;5.73;75.32;96013.25;5040578;28;20045;-82
2022/12/03 06:48:04;;;;;;;9.75;6.25;;;;;;;5.62;75.71;96012.19;5040756;28;20053;-82
2022/12/03 06:50:29;;;;;;;13.20;7.03;;;;;;;5.72;75.66;96015.06;5041326;28;20053;-82
2022/12/03 06:52:55;;;;;;;12.32;7.70;;;;;;;5.44;75.24;95952.50;5023162;28;20043;-83
2022/12/03 06:55:20;;;;;;;14.43;7.20;;;;;;;6.34;75.66;96092.03;5022777;28;20470;-83
2022/12/03 06:57:46;;;;;;;14.10;8.82;;;;;;;5.78;75.08;96000.22;5006206;28;20049;-82
2022/12/03 07:00:12;;;;;;;15.15;9.00;;;;;;;5.40;75.36;95948.72;5040461;28;20788;-82
2022/12/03 07:02:37;;;;;;;17.38;9.07;;;;;;;5.60;74.68;95985.28;5041423;28;20041;-83
2022/12/03 07:05:03;;;;;;;12.75;8.30;;;;;;;4.95;74.97;95879.09;5039749;28;20049;-83
2022/12/03 07:07:28;;;;;;;13.40;8.10;;;;;;;5.63;74.77;95978.78;5038575;28;20068;-82
2022/12/03 07:09:54;;;;;;;18.95;8.85;;;;;;;5.70;75.22;95990.81;5022277;28;20148;-82
2022/12/03 07:12:20;;;;;;;13.90;7.93;;;;;;;6.38;75.04;96087.94;5023290;28;20072;-85
2022/12/03 07:14:45;;;;;;;19.05;9.60;;;;;;;5.75;74.49;96011.19;5039863;28;20032;-82
2022/12/03 07:17:11;;;;;;;16.27;8.45;;;;;;;5.81;75.20;96003.22;5039964;28;20514;-84
2022/12/03 07:19:36;;;;;;;13.75;8.00;;;;;;;6.27;74.67;96075.53;5055791;28;20045;-81
2022/12/03 07:22:02;;;;;;;14.38;8.55;;;;;;;5.78;74.71;96002.88;5040274;28;20057;-84
2022/12/03 07:24:27;;;;;;;12.23;7.50;;;;;;;5.75;74.96;95998.03;5040116;28;20087;-84
2022/12/03 07:26:53;;;;;;;13.15;7.15;;;;;;;5.39;74.57;95952.34;5040068;28;20052;-83
2022/12/03 07:29:18;;;;;;;14.60;7.03;;;;;;;6.38;74.86;96102.94;5022091;28;20528;-85
2022/12/03 07:31:43;;;;;;;14.70;7.85;;;;;;;6.00;74.74;96032.97;5040093;28;20073;-82
2022/12/03 07:34:09;;;;;;;14.10;8.32;;;;;;;6.49;74.60;96105.59;5022109;28;20080;-82
2022/12/03 07:36:34;;;;;;;13.35;7.72;;;;;;;5.43;74.82;95936.91;5039370;28;20049;-82
2022/12/03 07:39:00;;;;;;;14.70;8.85;;;;;;;5.93;74.74;96031.44;5022294;28;20076;-84
2022/12/03 07:41:25;;;;;;;13.95;8.63;;;;;;;6.23;74.69;96073.56;5040340;28;20044;-82
2022/12/03 07:43:51;;;;;;;16.77;8.63;;;;;;;5.58;74.74;95981.25;5038449;28;20078;-81
2022/12/03 07:46:16;;;;;;;13.65;9.07;;;;;;;5.99;75.90;96048.97;5039487;28;20049;-84
2022/12/03 07:48:41;;;;;;;13.13;8.43;;;;;;;5.85;75.29;96005.41;5019989;28;20052;-82
2022/12/03 07:51:07;;;;;;;16.63;8.60;;;;;;;5.91;74.42;96021.13;5039453;28;20048;-83
2022/12/03 07:53:34;;;;;;;14.05;8.07;;;;;;;6.35;74.43;96116.56;5040118;28;20079;-82
2022/12/03 07:56:01;;;;;;;15.30;7.88;;;;;;;5.77;74.47;96053.91;5054316;28;20079;-82
2022/12/03 07:58:26;;;;;;;13.50;8.63;;;;;;;6.19;75.08;96121.41;5039608;28;20048;-83
2022/12/03 08:00:51;;;;;;;13.73;7.43;;;;;;;6.23;75.21;96118.34;5019264;28;20102;-81
2022/12/03 08:03:17;;;;;;;12.65;7.45;;;;;;;6.36;74.70;96115.53;5039630;28;20048;-83
2022/12/03 08:05:42;;;;;;;19.17;8.13;;;;;;;6.10;74.58;96066.66;5039735;28;20057;-83
2022/12/03 08:08:08;;;;;;;14.13;7.95;;;;;;;5.60;74.22;95973.94;5039789;28;20128;-82
2022/12/03 08:10:33;;;;;;;14.32;8.80;;;;;;;6.06;74.39;96044.44;5054900;28;20333;-81
2022/12/03 08:12:58;;;;;;;11.60;7.07;;;;;;;6.58;74.39;96122.72;5054427;28;20090;-84
2022/12/03 08:15:27;;;;;;;16.33;8.45;;;;;;;6.57;74.53;96121.09;5053892;28;20527;-82
2022/12/03 08:17:58;;;;;;;17.55;8.45;;;;;;;5.89;74.19;96003.94;5039064;28;20060;-83
2022/12/03 08:20:30;;;;;;;14.18;8.05;;;;;;;5.61;74.11;95963.19;5039474;28;20044;-84
2022/12/03 08:22:56;;;;;;;15.05;8.52;;;;;;;6.70;74.14;96128.03;5021470;28;20475;-83
2022/12/03 08:25:30;;;;;;;16.77;9.27;;;;;;;6.55;73.98;96110.00;5021813;28;20052;-83
2022/12/03 08:28:01;;;;;;;16.45;8.57;;;;;;;6.49;73.87;96108.25;5039687;28;20048;-82
2022/12/03 08:30:28;;;;;;;12.20;7.47;;;;;;;5.79;74.08;96004.47;5022070;28;20762;-84
2022/12/03 08:32:53;;;;;;;13.50;7.80;;;;;;;6.78;73.58;96135.63;5040425;28;20210;-82
2022/12/03 08:35:26;;;;;;;16.23;8.57;;;;;;;6.36;73.63;96076.00;5040778;28;20100;-84
2022/12/03 08:38:08;;;;;;;16.00;8.52;;;;;;;6.80;74.11;96149.34;5023325;28;20040;-88
2022/12/03 08:40:44;;;;;;;15.32;8.77;;;;;;;6.74;73.80;96126.53;5024698;28;20103;-83
2022/12/03 08:43:23;;;;;;;13.93;8.13;;;;;;;6.89;73.21;96148.00;5027789;28;20071;-83
2022/12/03 08:45:56;;;;;;;15.27;8.18;;;;;;;6.22;73.32;96048.25;5041383;28;20106;-83
2022/12/03 08:48:26;;;;;;;14.18;7.40;;;;;;;6.88;73.83;96148.22;5039419;28;20060;-84
2022/12/03 08:50:56;;;;;;;14.43;8.70;;;;;;;6.97;73.36;96138.97;5021989;28;20478;-83
2022/12/03 08:53:33;;;;;;;13.95;8.73;;;;;;;6.25;73.33;96029.38;5021732;28;20439;-82
2022/12/03 08:56:22;;;;;;;18.52;9.13;;;;;;;6.94;73.47;96144.69;5040258;28;20045;-84
2022/12/03 08:58:58;;;;;;;18.77;8.65;;;;;;;6.14;73.63;96049.38;5005864;28;20049;-83
2022/12/03 09:01:31;;;;;;;17.30;8.55;;;;;;;6.72;73.35;96130.41;5054322;28;20041;-81
2022/12/03 09:04:44;;;;;;;12.38;7.82;;;;;;;7.01;73.31;96139.31;5039641;28;20045;-82
2022/12/03 09:07:09;;;;;;;;;;;;;;;7.00;73.26;96141.16;5014946;28;20717;-82
2022/12/03 09:09:35;;;;;;;15.63;7.95;;;;;;;6.70;73.17;96075.31;5020857;28;19921;-84
2022/12/03 09:12:03;;;;;;;13.38;8.55;;;;;;;6.70;72.67;96080.56;5054205;28;20045;-83
2022/12/03 09:14:28;;;;;;;15.15;8.85;;;;;;;6.17;73.07;95994.44;5020847;28;20052;-83
2022/12/03 09:16:54;;;;;;;15.60;8.98;;;;;;;6.50;72.76;96038.69;5053399;28;20135;-84
2022/12/03 09:19:24;;;;;;;21.00;10.25;;;;;;;6.62;72.60;96048.47;5042457;28;20144;-82
2022/12/03 09:21:50;;;;;;;25.45;11.15;;;;;;;7.17;73.05;96138.66;5046951;28;20049;-84
2022/12/03 09:24:15;;;;;;;24.42;11.70;;;;;;;6.75;73.11;96064.88;5020902;28;20052;-84
2022/12/03 09:26:41;;;;;;;25.77;12.15;;;;;;;6.44;73.35;96020.38;5020717;28;20045;-83
2022/12/03 09:29:07;;;;;;;17.02;9.63;;;;;;;7.01;73.69;96108.47;5020877;28;20048;-85
2022/12/03 09:31:33;;;;;;;15.00;9.77;;;;;;;6.74;73.49;96065.91;5036606;28;20144;-83
2022/12/03 09:34:02;;;;;;;16.40;9.40;;;;;;;6.68;73.00;96043.09;5038109;28;20040;-84
2022/12/03 09:36:28;;;;;;;17.58;10.35;;;;;;;7.16;72.92;96094.84;5021067;28;20529;-84
2022/12/03 09:38:53;;;;;;;19.98;10.13;;;;;;;6.98;73.19;96082.53;5021039;28;20049;-83
2022/12/03 09:41:19;;;;;;;20.88;9.88;;;;;;;7.22;72.79;96093.91;5039485;28;20041;-83
2022/12/03 09:43:45;;;;;;;26.05;11.82;;;;;;;7.07;72.33;96068.00;5039544;28;20055;-83
2022/12/03 09:46:13;;;;;;;19.65;10.50;;;;;;;6.83;72.35;96040.81;5039593;28;20496;-81
2022/12/03 09:48:39;;;;;;;18.13;10.93;;;;;;;6.89;72.60;96031.97;5022448;28;20131;-83
2022/12/03 09:51:06;;;;;;;19.33;10.43;;;;;;;7.53;72.30;96129.69;5039525;28;20049;-83
2022/12/03 09:53:32;;;;;;;20.75;11.70;;;;;;;7.00;72.11;96037.50;5039709;28;20048;-83
2022/12/03 09:55:59;;;;;;;16.20;10.23;;;;;;;7.52;72.32;96114.88;5042194;28;20056;-85
2022/12/03 09:58:26;;;;;;;19.38;10.25;;;;;;;7.58;72.21;96120.03;5043623;28;20049;-83
2022/12/03 10:00:51;;;;;;;13.18;8.82;;;;;;;7.48;72.11;96103.16;5024671;28;20044;-83
2022/12/03 10:03:20;;;;;;;16.48;10.10;;;;;;;6.79;72.05;95983.50;5024647;28;20110;-82
2022/12/03 10:05:46;;;;;;;15.35;9.50;;;;;;;6.89;71.78;96004.81;5024274;28;20052;-82
2022/12/03 10:08:20;;;;;;;16.02;9.80;;;;;;;7.60;71.48;96103.97;5024747;28;20051;-83
2022/12/03 10:10:48;;;;;;;16.52;9.27;;;;;;;7.29;71.38;96047.09;5024645;28;20049;-84
2022/12/03 10:13:26;;;;;;;17.50;9.63;;;;;;;7.47;71.20;96073.38;5024477;28;20417;-84
2022/12/03 10:15:54;;;;;;;14.90;9.45;;;;;;;7.40;71.67;96056.06;5024891;28;20150;-82
2022/12/03 10:18:23;;;;;;;16.27;9.02;;;;;;;7.69;71.12;96094.66;5058100;28;20088;-85
2022/12/03 10:20:50;;;;;;;13.32;8.15;;;;;;;7.06;70.56;95989.09;5042173;28;20518;-85
2022/12/03 10:23:24;;;;;;;14.27;8.20;;;;;;;7.50;70.53;96046.50;5024323;28;20136;-84
2022/12/03 10:25:55;;;;;;;13.07;8.05;;;;;;;7.69;70.64;96092.84;5042121;28;20049;-86
2022/12/03 10:28:32;;;;;;;16.40;9.18;;;;;;;7.70;70.53;96083.84;5042057;28;20056;-85
2022/12/03 10:30:59;;;;;;;21.38;10.27;;;;;;;7.32;70.62;96013.13;5042230;28;20057;-83
2022/12/03 10:33:31;;;;;;;19.48;9.95;;;;;;;6.72;70.87;95945.88;5024518;28;20152;-82
2022/12/03 10:36:13;;;;;;;17.90;9.90;;;;;;;7.10;70.56;95982.31;5042713;28;20143;-84
2022/12/03 10:38:39;;;;;;;16.65;10.27;;;;;;;7.39;70.56;96009.56;5024359;28;20663;-84
2022/12/03 10:41:23;;;;;;;19.95;11.15;;;;;;;7.17;70.49;95975.88;5042777;28;20110;-85
2022/12/03 10:43:49;;;;;;;17.15;10.23;;;;;;;7.90;70.53;96083.47;5042726;28;20108;-84
2022/12/03 10:46:21;;;;;;;16.55;10.07;;;;;;;7.60;70.35;96037.97;5044717;28;20041;-83
2022/12/03 10:49:15;;;;;;;17.95;9.48;;;;;;;7.95;69.86;96083.56;5037706;28;20742;-85
2022/12/03 10:51:41;;;;;;;15.60;9.73;;;;;;;7.43;70.92;96014.16;5018767;28;20056;-82
2022/12/03 10:54:19;;;;;;;17.70;9.95;;;;;;;7.90;70.18;96077.38;5042546;28;20076;-84
2022/12/03 10:56:46;;;;;;;14.70;9.55;;;;;;;7.72;70.99;96075.72;5024152;28;20444;-83
2022/12/03 10:59:18;;;;;;;16.30;9.65;;;;;;;7.85;71.07;96072.03;5042159;28;20883;-83
2022/12/03 11:01:44;;;;;;;16.88;9.50;;;;;;;7.44;71.39;96013.13;5023727;28;20126;-85
2022/12/03 11:04:18;;;;;;;19.40;10.75;;;;;;;7.90;71.22;96078.19;5023675;28;20052;-82
2022/12/03 11:06:44;;;;;;;15.95;9.88;;;;;;;7.21;70.73;95963.03;5022717;28;20044;-85
2022/12/03 11:09:18;;;;;;;21.02;10.77;;;;;;;7.28;70.65;95961.88;5041668;28;20130;-83
2022/12/03 11:11:44;;;;;;;17.42;10.93;;;;;;;7.84;70.72;96060.66;5040674;28;20252;-83
2022/12/03 11:14:10;;;;;;;18.05;10.30;;;;;;;7.27;70.84;95970.00;5022553;28;20041;-83
2022/12/03 11:16:38;;;;;;;20.17;10.98;;;;;;;7.82;70.80;96068.00;5022924;28;20418;-83
2022/12/03 11:19:16;;;;;;;15.15;9.52;;;;;;;7.30;71.10;95993.31;5041414;28;20084;-83
2022/12/03 11:22:03;;;;;;;16.40;9.88;;;;;;;7.84;70.71;96070.41;5040694;28;20051;-85
2022/12/03 11:24:30;;;;;;;22.20;11.57;;;;;;;7.50;71.34;96035.94;5040409;28;20045;-85
2022/12/03 11:26:55;;;;;;;17.08;10.43;;;;;;;7.88;70.85;96067.06;5040551;28;20152;-86
2022/12/03 11:29:46;;;;;;;23.00;12.13;;;;;;;7.73;70.76;96070.19;5042140;28;20627;-82
2022/12/03 11:32:37;;;;;;;20.73;11.30;;;;;;;7.53;70.96;96019.63;5041168;28;20139;-84
2022/12/03 11:35:34;;;;;;;20.92;10.98;;;;;;;6.95;70.28;95924.75;5023204;28;20051;-83
2022/12/03 11:38:39;;;;;;;23.25;11.00;;;;;;;7.35;70.66;95974.91;5041597;28;20069;-86
2022/12/03 11:41:32;;;;;;;16.02;10.90;;;;;;;7.60;71.04;96022.16;5021512;28;20075;-84
2022/12/03 11:44:28;;;;;;;22.27;11.05;;;;;;;7.85;70.30;96058.81;5021985;28;20507;-82
2022/12/03 11:46:55;;;;;;;15.55;9.38;;;;;;;7.50;70.48;95991.06;5041565;28;20573;-83
2022/12/03 11:49:29;;;;;;;16.02;9.45;;;;;;;7.83;70.44;96048.47;5040501;28;20110;-84
2022/12/03 11:51:56;;;;;;;16.15;9.23;;;;;;;7.16;70.64;95952.38;5039913;28;20144;-84
2022/12/03 11:54:22;;;;;;;18.98;11.40;;;;;;;7.41;71.12;96000.38;5024081;28;20583;-83
2022/12/03 11:56:48;;;;;;;22.42;12.18;;;;;;;7.78;71.06;96040.47;5030502;28;20041;-84
2022/12/03 11:59:16;;;;;;;21.10;11.80;;;;;;;7.26;71.67;95971.84;4989938;28;20135;-83